sensor_id;sensor_type;location;lat;lon;timestamp;P1;durP1;ratioP1;P2;durP2;ratioP2
24517;SDS011;12678;51.336;12.406;2023-09-08T00:01:18;9.57;;;4.15;;
24517;SDS011;12678;51.336;12.406;2023-09-08T00:03:44;9.50;;;3.78;;
24517;SDS011;12678;51.336;12.406;2023-09-08T00:06:10;8.80;;;4.43;;
24517;SDS011;12678;51.336;12.406;2023-09-08T00:11:57;16.40;;;3.95;;
24517;SDS011;12678;51.336;12.406;2023-09-08T00:14:23;8.98;;;4.80;;
24517;SDS011;12678;51.336;12.406;2023-09-08T00:16:51;9.75;;;4.32;;
24517;SDS011;12678;51.336;12.406;2023-09-08T00:19:19;5.82;;;3.50;;
24517;SDS011;12678;51.336;12.406;2023-09-08T00:21:45;7.07;;;4.15;;
24517;SDS011;12678;51.336;12.406;2023-09-08T00:24:10;7.18;;;4.18;;
24517;SDS011;12678;51.336;12.406;2023-09-08T00:26:37;8.88;;;4.28;;
24517;SDS011;12678;51.336;12.406;2023-09-08T00:29:02;7.45;;;3.95;;
24517;SDS011;12678;51.336;12.406;2023-09-08T00:31:28;9.02;;;4.10;;
24517;SDS011;12678;51.336;12.406;2023-09-08T00:33:53;10.40;;;3.90;;
24517;SDS011;12678;51.336;12.406;2023-09-08T00:36:19;7.15;;;4.00;;
24517;SDS011;12678;51.336;12.406;2023-09-08T00:38:44;6.13;;;3.83;;
24517;SDS011;12678;51.336;12.406;2023-09-08T00:41:10;8.93;;;4.35;;
24517;SDS011;12678;51.336;12.406;2023-09-08T00:46:57;13.43;;;4.20;;
24517;SDS011;12678;51.336;12.406;2023-09-08T00:49:23;7.30;;;3.97;;
24517;SDS011;12678;51.336;12.406;2023-09-08T00:51:49;5.38;;;3.75;;
24517;SDS011;12678;51.336;12.406;2023-09-08T00:54:15;8.40;;;4.57;;
24517;SDS011;12678;51.336;12.406;2023-09-08T00:56:42;7.53;;;4.18;;
24517;SDS011;12678;51.336;12.406;2023-09-08T00:59:08;7.65;;;4.07;;
24517;SDS011;12678;51.336;12.406;2023-09-08T01:01:34;11.27;;;4.55;;
24517;SDS011;12678;51.336;12.406;2023-09-08T01:04:00;11.52;;;4.35;;
24517;SDS011;12678;51.336;12.406;2023-09-08T01:06:26;6.97;;;4.43;;
24517;SDS011;12678;51.336;12.406;2023-09-08T01:08:53;9.50;;;4.30;;
24517;SDS011;12678;51.336;12.406;2023-09-08T01:11:20;7.82;;;4.40;;
24517;SDS011;12678;51.336;12.406;2023-09-08T01:13:46;6.85;;;4.43;;
24517;SDS011;12678;51.336;12.406;2023-09-08T01:16:12;6.35;;;3.85;;
24517;SDS011;12678;51.336;12.406;2023-09-08T01:18:37;6.28;;;3.92;;
24517;SDS011;12678;51.336;12.406;2023-09-08T01:26:10;7.63;;;4.63;;
24517;SDS011;12678;51.336;12.406;2023-09-08T01:28:39;12.48;;;5.18;;
24517;SDS011;12678;51.336;12.406;2023-09-08T01:31:05;8.93;;;4.07;;
24517;SDS011;12678;51.336;12.406;2023-09-08T01:33:31;7.32;;;3.92;;
24517;SDS011;12678;51.336;12.406;2023-09-08T01:35:58;8.38;;;4.53;;
24517;SDS011;12678;51.336;12.406;2023-09-08T01:38:24;7.05;;;4.47;;
24517;SDS011;12678;51.336;12.406;2023-09-08T01:40:50;12.50;;;4.90;;
24517;SDS011;12678;51.336;12.406;2023-09-08T01:43:15;8.75;;;4.45;;
24517;SDS011;12678;51.336;12.406;2023-09-08T01:45:41;9.98;;;4.70;;
24517;SDS011;12678;51.336;12.406;2023-09-08T01:48:06;11.23;;;4.45;;
24517;SDS011;12678;51.336;12.406;2023-09-08T01:50:32;11.38;;;4.30;;
24517;SDS011;12678;51.336;12.406;2023-09-08T01:52:57;9.73;;;4.40;;
24517;SDS011;12678;51.336;12.406;2023-09-08T01:55:23;9.40;;;4.05;;
24517;SDS011;12678;51.336;12.406;2023-09-08T01:57:48;7.13;;;3.90;;
24517;SDS011;12678;51.336;12.406;2023-09-08T02:00:14;6.70;;;4.28;;
24517;SDS011;12678;51.336;12.406;2023-09-08T02:02:40;5.50;;;4.00;;
24517;SDS011;12678;51.336;12.406;2023-09-08T02:05:06;14.00;;;4.97;;
24517;SDS011;12678;51.336;12.406;2023-09-08T02:07:33;7.20;;;4.40;;
24517;SDS011;12678;51.336;12.406;2023-09-08T02:09:58;6.00;;;3.90;;
24517;SDS011;12678;51.336;12.406;2023-09-08T02:12:24;7.85;;;4.18;;
24517;SDS011;12678;51.336;12.406;2023-09-08T02:14:49;6.18;;;4.13;;
24517;SDS011;12678;51.336;12.406;2023-09-08T02:17:16;11.73;;;4.30;;
24517;SDS011;12678;51.336;12.406;2023-09-08T02:19:42;8.30;;;4.95;;
24517;SDS011;12678;51.336;12.406;2023-09-08T02:22:08;6.32;;;4.32;;
24517;SDS011;12678;51.336;12.406;2023-09-08T02:24:33;6.57;;;4.78;;
24517;SDS011;12678;51.336;12.406;2023-09-08T02:26:59;9.65;;;4.40;;
24517;SDS011;12678;51.336;12.406;2023-09-08T02:29:24;7.82;;;5.07;;
24517;SDS011;12678;51.336;12.406;2023-09-08T02:31:50;18.08;;;9.88;;
24517;SDS011;12678;51.336;12.406;2023-09-08T02:34:16;34.38;;;19.98;;
24517;SDS011;12678;51.336;12.406;2023-09-08T02:36:42;32.53;;;19.48;;
24517;SDS011;12678;51.336;12.406;2023-09-08T02:39:08;20.48;;;8.68;;
24517;SDS011;12678;51.336;12.406;2023-09-08T02:41:33;12.38;;;8.43;;
24517;SDS011;12678;51.336;12.406;2023-09-08T02:43:59;17.05;;;9.98;;
24517;SDS011;12678;51.336;12.406;2023-09-08T02:46:25;14.65;;;6.22;;
24517;SDS011;12678;51.336;12.406;2023-09-08T02:48:51;35.22;;;21.05;;
24517;SDS011;12678;51.336;12.406;2023-09-08T02:51:17;17.33;;;10.18;;
24517;SDS011;12678;51.336;12.406;2023-09-08T02:53:43;35.42;;;20.17;;
24517;SDS011;12678;51.336;12.406;2023-09-08T02:56:08;13.07;;;7.55;;
24517;SDS011;12678;51.336;12.406;2023-09-08T02:58:34;19.90;;;12.98;;
24517;SDS011;12678;51.336;12.406;2023-09-08T03:01:10;33.38;;;20.58;;
24517;SDS011;12678;51.336;12.406;2023-09-08T03:03:40;23.67;;;14.45;;
24517;SDS011;12678;51.336;12.406;2023-09-08T03:06:09;18.33;;;11.70;;
24517;SDS011;12678;51.336;12.406;2023-09-08T03:08:35;14.85;;;8.88;;
24517;SDS011;12678;51.336;12.406;2023-09-08T03:11:04;12.73;;;8.32;;
24517;SDS011;12678;51.336;12.406;2023-09-08T03:13:30;16.80;;;8.60;;
24517;SDS011;12678;51.336;12.406;2023-09-08T03:15:57;39.40;;;19.35;;
24517;SDS011;12678;51.336;12.406;2023-09-08T03:18:26;20.40;;;12.07;;
24517;SDS011;12678;51.336;12.406;2023-09-08T03:20:52;14.73;;;6.78;;
24517;SDS011;12678;51.336;12.406;2023-09-08T03:23:17;15.65;;;8.35;;
24517;SDS011;12678;51.336;12.406;2023-09-08T03:25:43;16.00;;;9.23;;
24517;SDS011;12678;51.336;12.406;2023-09-08T03:28:09;17.10;;;7.53;;
24517;SDS011;12678;51.336;12.406;2023-09-08T03:30:34;11.65;;;7.35;;
24517;SDS011;12678;51.336;12.406;2023-09-08T03:33:00;13.75;;;7.65;;
24517;SDS011;12678;51.336;12.406;2023-09-08T03:35:26;14.65;;;8.93;;
24517;SDS011;12678;51.336;12.406;2023-09-08T03:37:51;16.75;;;9.35;;
24517;SDS011;12678;51.336;12.406;2023-09-08T03:40:17;23.13;;;15.93;;
24517;SDS011;12678;51.336;12.406;2023-09-08T03:42:42;14.25;;;8.85;;
24517;SDS011;12678;51.336;12.406;2023-09-08T03:45:08;15.70;;;8.98;;
24517;SDS011;12678;51.336;12.406;2023-09-08T03:47:33;20.52;;;13.02;;
24517;SDS011;12678;51.336;12.406;2023-09-08T03:49:59;17.10;;;8.40;;
24517;SDS011;12678;51.336;12.406;2023-09-08T03:52:25;26.17;;;12.27;;
24517;SDS011;12678;51.336;12.406;2023-09-08T03:54:51;14.68;;;7.47;;
24517;SDS011;12678;51.336;12.406;2023-09-08T03:57:16;10.63;;;7.05;;
24517;SDS011;12678;51.336;12.406;2023-09-08T03:59:42;10.32;;;7.63;;
24517;SDS011;12678;51.336;12.406;2023-09-08T04:02:07;12.25;;;6.75;;
24517;SDS011;12678;51.336;12.406;2023-09-08T04:04:33;17.13;;;6.05;;
24517;SDS011;12678;51.336;12.406;2023-09-08T04:06:58;11.20;;;6.30;;
24517;SDS011;12678;51.336;12.406;2023-09-08T04:09:24;13.02;;;8.20;;
24517;SDS011;12678;51.336;12.406;2023-09-08T04:11:49;8.05;;;5.07;;
24517;SDS011;12678;51.336;12.406;2023-09-08T04:14:15;7.45;;;4.65;;
24517;SDS011;12678;51.336;12.406;2023-09-08T04:16:41;9.90;;;5.38;;
24517;SDS011;12678;51.336;12.406;2023-09-08T04:19:06;6.80;;;4.85;;
24517;SDS011;12678;51.336;12.406;2023-09-08T04:21:32;8.50;;;5.22;;
24517;SDS011;12678;51.336;12.406;2023-09-08T04:23:58;12.13;;;4.72;;
24517;SDS011;12678;51.336;12.406;2023-09-08T04:26:24;9.02;;;4.82;;
24517;SDS011;12678;51.336;12.406;2023-09-08T04:28:50;6.38;;;4.38;;
24517;SDS011;12678;51.336;12.406;2023-09-08T04:31:15;10.95;;;5.53;;
24517;SDS011;12678;51.336;12.406;2023-09-08T04:33:43;8.48;;;5.28;;
24517;SDS011;12678;51.336;12.406;2023-09-08T04:36:08;6.78;;;3.92;;
24517;SDS011;12678;51.336;12.406;2023-09-08T04:38:35;7.88;;;4.30;;
24517;SDS011;12678;51.336;12.406;2023-09-08T04:41:01;12.93;;;4.10;;
24517;SDS011;12678;51.336;12.406;2023-09-08T04:43:27;8.90;;;4.35;;
24517;SDS011;12678;51.336;12.406;2023-09-08T04:45:52;12.82;;;4.13;;
24517;SDS011;12678;51.336;12.406;2023-09-08T04:48:18;8.82;;;4.70;;
24517;SDS011;12678;51.336;12.406;2023-09-08T04:50:43;8.95;;;4.55;;
24517;SDS011;12678;51.336;12.406;2023-09-08T04:53:09;11.20;;;4.97;;
24517;SDS011;12678;51.336;12.406;2023-09-08T04:55:34;6.38;;;4.35;;
24517;SDS011;12678;51.336;12.406;2023-09-08T04:58:00;11.50;;;5.25;;
24517;SDS011;12678;51.336;12.406;2023-09-08T05:00:25;10.48;;;6.05;;
24517;SDS011;12678;51.336;12.406;2023-09-08T05:02:51;10.68;;;6.68;;
24517;SDS011;12678;51.336;12.406;2023-09-08T05:05:16;16.65;;;8.52;;
24517;SDS011;12678;51.336;12.406;2023-09-08T05:07:42;6.15;;;3.97;;
24517;SDS011;12678;51.336;12.406;2023-09-08T05:10:07;14.68;;;5.38;;
24517;SDS011;12678;51.336;12.406;2023-09-08T05:12:34;8.75;;;5.13;;
24517;SDS011;12678;51.336;12.406;2023-09-08T05:14:59;11.65;;;4.57;;
24517;SDS011;12678;51.336;12.406;2023-09-08T05:17:31;10.27;;;4.97;;
24517;SDS011;12678;51.336;12.406;2023-09-08T05:19:57;8.82;;;3.95;;
24517;SDS011;12678;51.336;12.406;2023-09-08T05:22:22;9.35;;;5.38;;
24517;SDS011;12678;51.336;12.406;2023-09-08T05:24:48;8.48;;;4.78;;
24517;SDS011;12678;51.336;12.406;2023-09-08T05:27:13;10.23;;;4.45;;
24517;SDS011;12678;51.336;12.406;2023-09-08T05:29:39;8.85;;;4.10;;
24517;SDS011;12678;51.336;12.406;2023-09-08T05:32:04;12.65;;;4.32;;
24517;SDS011;12678;51.336;12.406;2023-09-08T05:34:30;9.80;;;4.40;;
24517;SDS011;12678;51.336;12.406;2023-09-08T05:36:56;6.30;;;3.60;;
24517;SDS011;12678;51.336;12.406;2023-09-08T05:39:21;6.78;;;4.05;;
24517;SDS011;12678;51.336;12.406;2023-09-08T05:41:47;9.95;;;5.07;;
24517;SDS011;12678;51.336;12.406;2023-09-08T05:44:12;8.52;;;3.85;;
24517;SDS011;12678;51.336;12.406;2023-09-08T05:46:38;12.45;;;4.68;;
24517;SDS011;12678;51.336;12.406;2023-09-08T05:49:03;16.45;;;4.43;;
24517;SDS011;12678;51.336;12.406;2023-09-08T05:51:29;6.10;;;4.03;;
24517;SDS011;12678;51.336;12.406;2023-09-08T05:53:55;6.97;;;4.18;;
24517;SDS011;12678;51.336;12.406;2023-09-08T05:56:24;7.55;;;4.05;;
24517;SDS011;12678;51.336;12.406;2023-09-08T05:58:51;12.48;;;4.53;;
24517;SDS011;12678;51.336;12.406;2023-09-08T06:01:17;12.13;;;4.40;;
24517;SDS011;12678;51.336;12.406;2023-09-08T06:03:42;9.93;;;4.32;;
24517;SDS011;12678;51.336;12.406;2023-09-08T06:06:08;7.90;;;3.72;;
24517;SDS011;12678;51.336;12.406;2023-09-08T06:08:34;10.13;;;4.28;;
24517;SDS011;12678;51.336;12.406;2023-09-08T06:10:59;7.60;;;4.00;;
24517;SDS011;12678;51.336;12.406;2023-09-08T06:13:25;13.75;;;4.35;;
24517;SDS011;12678;51.336;12.406;2023-09-08T06:15:50;9.05;;;4.20;;
24517;SDS011;12678;51.336;12.406;2023-09-08T06:18:16;7.35;;;4.35;;
24517;SDS011;12678;51.336;12.406;2023-09-08T06:20:45;7.00;;;4.50;;
24517;SDS011;12678;51.336;12.406;2023-09-08T06:23:11;7.65;;;4.32;;
24517;SDS011;12678;51.336;12.406;2023-09-08T06:25:37;8.85;;;4.22;;
24517;SDS011;12678;51.336;12.406;2023-09-08T06:28:02;14.38;;;4.05;;
24517;SDS011;12678;51.336;12.406;2023-09-08T06:30:28;13.85;;;4.25;;
24517;SDS011;12678;51.336;12.406;2023-09-08T06:32:54;8.70;;;4.22;;
24517;SDS011;12678;51.336;12.406;2023-09-08T06:35:19;8.07;;;4.53;;
24517;SDS011;12678;51.336;12.406;2023-09-08T06:37:45;11.77;;;5.22;;
24517;SDS011;12678;51.336;12.406;2023-09-08T06:40:10;11.23;;;4.20;;
24517;SDS011;12678;51.336;12.406;2023-09-08T06:42:36;10.02;;;4.38;;
24517;SDS011;12678;51.336;12.406;2023-09-08T06:45:02;9.40;;;4.18;;
24517;SDS011;12678;51.336;12.406;2023-09-08T06:47:27;7.80;;;4.55;;
24517;SDS011;12678;51.336;12.406;2023-09-08T06:49:53;13.05;;;4.32;;
24517;SDS011;12678;51.336;12.406;2023-09-08T06:52:18;23.52;;;11.13;;
24517;SDS011;12678;51.336;12.406;2023-09-08T06:54:44;11.73;;;5.13;;
24517;SDS011;12678;51.336;12.406;2023-09-08T06:57:11;8.90;;;5.30;;
24517;SDS011;12678;51.336;12.406;2023-09-08T06:59:37;11.13;;;4.30;;
24517;SDS011;12678;51.336;12.406;2023-09-08T07:02:03;7.90;;;4.28;;
24517;SDS011;12678;51.336;12.406;2023-09-08T07:04:29;9.05;;;4.50;;
24517;SDS011;12678;51.336;12.406;2023-09-08T07:06:55;8.60;;;4.43;;
24517;SDS011;12678;51.336;12.406;2023-09-08T07:09:21;11.07;;;5.10;;
24517;SDS011;12678;51.336;12.406;2023-09-08T07:11:46;8.55;;;4.38;;
24517;SDS011;12678;51.336;12.406;2023-09-08T07:14:12;8.52;;;4.80;;
24517;SDS011;12678;51.336;12.406;2023-09-08T07:16:37;9.30;;;5.18;;
24517;SDS011;12678;51.336;12.406;2023-09-08T07:19:03;12.20;;;4.18;;
24517;SDS011;12678;51.336;12.406;2023-09-08T07:21:29;10.23;;;4.65;;
24517;SDS011;12678;51.336;12.406;2023-09-08T07:23:54;11.95;;;5.40;;
24517;SDS011;12678;51.336;12.406;2023-09-08T07:26:20;12.32;;;5.38;;
24517;SDS011;12678;51.336;12.406;2023-09-08T07:28:45;8.48;;;4.68;;
24517;SDS011;12678;51.336;12.406;2023-09-08T07:31:11;10.88;;;5.00;;
24517;SDS011;12678;51.336;12.406;2023-09-08T07:33:37;8.93;;;4.85;;
24517;SDS011;12678;51.336;12.406;2023-09-08T07:36:06;8.30;;;5.10;;
24517;SDS011;12678;51.336;12.406;2023-09-08T07:38:33;6.13;;;4.03;;
24517;SDS011;12678;51.336;12.406;2023-09-08T07:41:01;9.85;;;4.85;;
24517;SDS011;12678;51.336;12.406;2023-09-08T07:43:28;8.93;;;4.30;;
24517;SDS011;12678;51.336;12.406;2023-09-08T07:45:53;10.52;;;4.60;;
24517;SDS011;12678;51.336;12.406;2023-09-08T07:48:19;7.78;;;4.60;;
24517;SDS011;12678;51.336;12.406;2023-09-08T07:50:45;7.22;;;3.92;;
24517;SDS011;12678;51.336;12.406;2023-09-08T07:53:10;6.07;;;4.00;;
24517;SDS011;12678;51.336;12.406;2023-09-08T07:55:36;5.75;;;3.85;;
24517;SDS011;12678;51.336;12.406;2023-09-08T07:58:02;5.38;;;4.05;;
24517;SDS011;12678;51.336;12.406;2023-09-08T08:00:28;6.53;;;3.70;;
24517;SDS011;12678;51.336;12.406;2023-09-08T08:02:55;6.72;;;3.83;;
24517;SDS011;12678;51.336;12.406;2023-09-08T08:05:59;5.10;;;3.45;;
24517;SDS011;12678;51.336;12.406;2023-09-08T08:11:45;7.15;;;4.05;;
24517;SDS011;12678;51.336;12.406;2023-09-08T08:14:11;8.07;;;4.10;;
24517;SDS011;12678;51.336;12.406;2023-09-08T08:16:37;7.85;;;4.18;;
24517;SDS011;12678;51.336;12.406;2023-09-08T08:19:18;7.70;;;3.58;;
24517;SDS011;12678;51.336;12.406;2023-09-08T08:21:44;4.95;;;3.72;;
24517;SDS011;12678;51.336;12.406;2023-09-08T08:24:09;7.85;;;3.83;;
24517;SDS011;12678;51.336;12.406;2023-09-08T08:26:35;7.15;;;3.80;;
24517;SDS011;12678;51.336;12.406;2023-09-08T08:29:01;7.80;;;4.40;;
24517;SDS011;12678;51.336;12.406;2023-09-08T08:31:26;7.07;;;3.88;;
24517;SDS011;12678;51.336;12.406;2023-09-08T08:33:52;9.50;;;5.03;;
24517;SDS011;12678;51.336;12.406;2023-09-08T08:36:17;6.85;;;3.88;;
24517;SDS011;12678;51.336;12.406;2023-09-08T08:38:43;8.00;;;4.07;;
24517;SDS011;12678;51.336;12.406;2023-09-08T08:41:10;10.93;;;4.13;;
24517;SDS011;12678;51.336;12.406;2023-09-08T08:43:35;5.78;;;3.55;;
24517;SDS011;12678;51.336;12.406;2023-09-08T08:46:02;5.57;;;3.75;;
24517;SDS011;12678;51.336;12.406;2023-09-08T08:48:29;7.03;;;3.63;;
24517;SDS011;12678;51.336;12.406;2023-09-08T08:50:57;6.32;;;3.95;;
24517;SDS011;12678;51.336;12.406;2023-09-08T08:53:24;5.85;;;4.07;;
24517;SDS011;12678;51.336;12.406;2023-09-08T08:55:51;6.25;;;3.60;;
24517;SDS011;12678;51.336;12.406;2023-09-08T08:58:19;6.57;;;4.25;;
24517;SDS011;12678;51.336;12.406;2023-09-08T09:00:50;8.23;;;3.70;;
24517;SDS011;12678;51.336;12.406;2023-09-08T09:03:18;6.38;;;3.55;;
24517;SDS011;12678;51.336;12.406;2023-09-08T09:05:45;7.82;;;3.80;;
24517;SDS011;12678;51.336;12.406;2023-09-08T09:08:11;5.45;;;3.70;;
24517;SDS011;12678;51.336;12.406;2023-09-08T09:10:38;10.27;;;3.85;;
24517;SDS011;12678;51.336;12.406;2023-09-08T09:13:03;5.05;;;3.58;;
24517;SDS011;12678;51.336;12.406;2023-09-08T09:15:30;5.63;;;3.60;;
24517;SDS011;12678;51.336;12.406;2023-09-08T09:18:04;10.40;;;3.83;;
24517;SDS011;12678;51.336;12.406;2023-09-08T09:20:30;6.07;;;3.10;;
24517;SDS011;12678;51.336;12.406;2023-09-08T09:22:56;5.00;;;3.03;;
24517;SDS011;12678;51.336;12.406;2023-09-08T09:25:22;6.10;;;3.47;;
24517;SDS011;12678;51.336;12.406;2023-09-08T09:27:59;6.05;;;3.30;;
24517;SDS011;12678;51.336;12.406;2023-09-08T09:30:28;6.10;;;3.88;;
24517;SDS011;12678;51.336;12.406;2023-09-08T09:33:11;6.55;;;3.90;;
24517;SDS011;12678;51.336;12.406;2023-09-08T09:35:40;4.88;;;3.20;;
24517;SDS011;12678;51.336;12.406;2023-09-08T09:38:07;7.18;;;3.72;;
24517;SDS011;12678;51.336;12.406;2023-09-08T09:40:33;7.80;;;3.70;;
24517;SDS011;12678;51.336;12.406;2023-09-08T09:42:59;6.40;;;3.90;;
24517;SDS011;12678;51.336;12.406;2023-09-08T09:45:25;4.80;;;3.28;;
24517;SDS011;12678;51.336;12.406;2023-09-08T09:47:51;5.13;;;3.70;;
24517;SDS011;12678;51.336;12.406;2023-09-08T09:50:36;9.35;;;4.05;;
24517;SDS011;12678;51.336;12.406;2023-09-08T09:53:08;9.23;;;3.38;;
24517;SDS011;12678;51.336;12.406;2023-09-08T09:55:34;5.30;;;3.60;;
24517;SDS011;12678;51.336;12.406;2023-09-08T09:58:02;5.75;;;3.75;;
24517;SDS011;12678;51.336;12.406;2023-09-08T10:00:29;10.50;;;3.70;;
24517;SDS011;12678;51.336;12.406;2023-09-08T10:02:58;5.78;;;3.28;;
24517;SDS011;12678;51.336;12.406;2023-09-08T10:05:24;4.72;;;3.35;;
24517;SDS011;12678;51.336;12.406;2023-09-08T10:07:50;6.22;;;3.45;;
24517;SDS011;12678;51.336;12.406;2023-09-08T10:10:16;8.77;;;3.53;;
24517;SDS011;12678;51.336;12.406;2023-09-08T10:12:43;8.32;;;3.65;;
24517;SDS011;12678;51.336;12.406;2023-09-08T10:15:11;7.70;;;3.58;;
24517;SDS011;12678;51.336;12.406;2023-09-08T10:17:37;10.35;;;3.80;;
24517;SDS011;12678;51.336;12.406;2023-09-08T10:20:05;5.03;;;3.17;;
24517;SDS011;12678;51.336;12.406;2023-09-08T10:22:36;7.90;;;3.22;;
24517;SDS011;12678;51.336;12.406;2023-09-08T10:25:06;6.80;;;3.22;;
24517;SDS011;12678;51.336;12.406;2023-09-08T10:27:33;5.03;;;3.10;;
24517;SDS011;12678;51.336;12.406;2023-09-08T10:30:01;6.07;;;3.40;;
24517;SDS011;12678;51.336;12.406;2023-09-08T10:32:32;7.63;;;3.95;;
24517;SDS011;12678;51.336;12.406;2023-09-08T10:34:59;7.65;;;3.80;;
24517;SDS011;12678;51.336;12.406;2023-09-08T10:37:26;5.25;;;2.85;;
24517;SDS011;12678;51.336;12.406;2023-09-08T10:40:20;5.43;;;3.38;;
24517;SDS011;12678;51.336;12.406;2023-09-08T10:42:43;4.07;;;3.13;;
24517;SDS011;12678;51.336;12.406;2023-09-08T10:45:18;9.27;;;3.70;;
24517;SDS011;12678;51.336;12.406;2023-09-08T10:50:17;7.15;;;3.92;;
24517;SDS011;12678;51.336;12.406;2023-09-08T10:52:43;9.07;;;5.07;;
24517;SDS011;12678;51.336;12.406;2023-09-08T10:55:10;5.50;;;3.15;;
24517;SDS011;12678;51.336;12.406;2023-09-08T10:57:37;6.47;;;4.43;;
24517;SDS011;12678;51.336;12.406;2023-09-08T11:00:09;8.70;;;3.72;;
24517;SDS011;12678;51.336;12.406;2023-09-08T11:02:37;5.80;;;3.67;;
24517;SDS011;12678;51.336;12.406;2023-09-08T11:05:06;5.22;;;3.15;;
24517;SDS011;12678;51.336;12.406;2023-09-08T11:07:38;6.22;;;3.42;;
24517;SDS011;12678;51.336;12.406;2023-09-08T11:10:05;5.32;;;3.50;;
24517;SDS011;12678;51.336;12.406;2023-09-08T11:12:31;6.57;;;2.97;;
24517;SDS011;12678;51.336;12.406;2023-09-08T11:14:58;4.47;;;3.58;;
24517;SDS011;12678;51.336;12.406;2023-09-08T11:17:29;6.45;;;3.50;;
24517;SDS011;12678;51.336;12.406;2023-09-08T11:19:55;4.10;;;2.95;;
24517;SDS011;12678;51.336;12.406;2023-09-08T11:22:22;5.70;;;3.08;;
24517;SDS011;12678;51.336;12.406;2023-09-08T11:24:49;4.30;;;2.95;;
24517;SDS011;12678;51.336;12.406;2023-09-08T11:27:16;6.53;;;3.08;;
24517;SDS011;12678;51.336;12.406;2023-09-08T11:29:43;5.57;;;3.03;;
24517;SDS011;12678;51.336;12.406;2023-09-08T11:32:09;5.53;;;3.47;;
24517;SDS011;12678;51.336;12.406;2023-09-08T11:34:36;6.70;;;3.22;;
24517;SDS011;12678;51.336;12.406;2023-09-08T11:37:11;6.55;;;3.28;;
24517;SDS011;12678;51.336;12.406;2023-09-08T11:39:41;6.05;;;2.97;;
24517;SDS011;12678;51.336;12.406;2023-09-08T11:42:08;5.82;;;3.47;;
24517;SDS011;12678;51.336;12.406;2023-09-08T11:44:35;8.45;;;3.35;;
24517;SDS011;12678;51.336;12.406;2023-09-08T11:47:01;4.65;;;2.72;;
24517;SDS011;12678;51.336;12.406;2023-09-08T11:49:33;5.88;;;3.25;;
24517;SDS011;12678;51.336;12.406;2023-09-08T11:51:59;5.97;;;3.35;;
24517;SDS011;12678;51.336;12.406;2023-09-08T11:54:25;4.57;;;2.95;;
24517;SDS011;12678;51.336;12.406;2023-09-08T11:56:54;9.00;;;3.40;;
24517;SDS011;12678;51.336;12.406;2023-09-08T11:59:20;4.07;;;3.00;;
24517;SDS011;12678;51.336;12.406;2023-09-08T12:01:45;5.63;;;3.45;;
24517;SDS011;12678;51.336;12.406;2023-09-08T12:04:18;4.65;;;2.97;;
24517;SDS011;12678;51.336;12.406;2023-09-08T12:06:45;6.03;;;3.13;;
24517;SDS011;12678;51.336;12.406;2023-09-08T12:09:11;8.35;;;3.08;;
24517;SDS011;12678;51.336;12.406;2023-09-08T12:11:37;6.10;;;3.30;;
24517;SDS011;12678;51.336;12.406;2023-09-08T12:14:07;6.88;;;4.03;;
24517;SDS011;12678;51.336;12.406;2023-09-08T12:16:37;5.28;;;3.33;;
24517;SDS011;12678;51.336;12.406;2023-09-08T12:19:03;5.07;;;3.20;;
24517;SDS011;12678;51.336;12.406;2023-09-08T12:21:29;7.00;;;3.30;;
24517;SDS011;12678;51.336;12.406;2023-09-08T12:23:56;3.90;;;2.80;;
24517;SDS011;12678;51.336;12.406;2023-09-08T12:26:24;3.50;;;2.72;;
24517;SDS011;12678;51.336;12.406;2023-09-08T12:28:50;4.43;;;3.22;;
24517;SDS011;12678;51.336;12.406;2023-09-08T12:31:17;7.18;;;3.53;;
24517;SDS011;12678;51.336;12.406;2023-09-08T12:33:43;6.00;;;3.30;;
24517;SDS011;12678;51.336;12.406;2023-09-08T12:36:10;4.03;;;2.67;;
24517;SDS011;12678;51.336;12.406;2023-09-08T12:38:37;5.53;;;2.92;;
24517;SDS011;12678;51.336;12.406;2023-09-08T12:41:03;5.60;;;2.65;;
24517;SDS011;12678;51.336;12.406;2023-09-08T12:43:29;4.05;;;3.00;;
24517;SDS011;12678;51.336;12.406;2023-09-08T12:45:55;5.03;;;3.45;;
24517;SDS011;12678;51.336;12.406;2023-09-08T12:48:21;5.97;;;3.50;;
24517;SDS011;12678;51.336;12.406;2023-09-08T12:50:47;5.30;;;3.40;;
24517;SDS011;12678;51.336;12.406;2023-09-08T12:53:16;12.18;;;3.15;;
24517;SDS011;12678;51.336;12.406;2023-09-08T12:55:45;7.78;;;4.97;;
24517;SDS011;12678;51.336;12.406;2023-09-08T12:58:11;6.80;;;3.60;;
24517;SDS011;12678;51.336;12.406;2023-09-08T13:00:36;5.25;;;3.17;;
24517;SDS011;12678;51.336;12.406;2023-09-08T13:03:02;6.70;;;3.72;;
24517;SDS011;12678;51.336;12.406;2023-09-08T13:05:27;8.63;;;4.90;;
24517;SDS011;12678;51.336;12.406;2023-09-08T13:07:53;7.20;;;3.42;;
24517;SDS011;12678;51.336;12.406;2023-09-08T13:10:19;5.43;;;3.10;;
24517;SDS011;12678;51.336;12.406;2023-09-08T13:12:45;4.85;;;3.22;;
24517;SDS011;12678;51.336;12.406;2023-09-08T13:15:11;6.22;;;2.58;;
24517;SDS011;12678;51.336;12.406;2023-09-08T13:17:37;10.13;;;3.00;;
24517;SDS011;12678;51.336;12.406;2023-09-08T13:20:02;7.32;;;2.92;;
24517;SDS011;12678;51.336;12.406;2023-09-08T13:22:28;5.47;;;3.45;;
24517;SDS011;12678;51.336;12.406;2023-09-08T13:24:54;9.55;;;3.05;;
24517;SDS011;12678;51.336;12.406;2023-09-08T13:27:20;6.28;;;3.55;;
24517;SDS011;12678;51.336;12.406;2023-09-08T13:29:45;6.07;;;3.08;;
24517;SDS011;12678;51.336;12.406;2023-09-08T13:32:11;3.92;;;2.58;;
24517;SDS011;12678;51.336;12.406;2023-09-08T13:34:36;5.85;;;2.70;;
24517;SDS011;12678;51.336;12.406;2023-09-08T13:37:03;4.85;;;2.83;;
24517;SDS011;12678;51.336;12.406;2023-09-08T13:39:29;6.20;;;2.85;;
24517;SDS011;12678;51.336;12.406;2023-09-08T13:41:55;7.53;;;2.90;;
24517;SDS011;12678;51.336;12.406;2023-09-08T13:44:24;6.35;;;2.63;;
24517;SDS011;12678;51.336;12.406;2023-09-08T13:46:50;6.43;;;3.22;;
24517;SDS011;12678;51.336;12.406;2023-09-08T13:49:16;9.65;;;3.03;;
24517;SDS011;12678;51.336;12.406;2023-09-08T13:51:42;4.20;;;2.63;;
24517;SDS011;12678;51.336;12.406;2023-09-08T13:54:09;6.05;;;2.92;;
24517;SDS011;12678;51.336;12.406;2023-09-08T13:56:35;4.30;;;2.90;;
24517;SDS011;12678;51.336;12.406;2023-09-08T13:59:03;6.00;;;2.95;;
24517;SDS011;12678;51.336;12.406;2023-09-08T14:01:28;4.40;;;2.65;;
24517;SDS011;12678;51.336;12.406;2023-09-08T14:03:55;6.03;;;3.20;;
24517;SDS011;12678;51.336;12.406;2023-09-08T14:06:21;4.72;;;2.92;;
24517;SDS011;12678;51.336;12.406;2023-09-08T14:08:48;4.65;;;2.90;;
24517;SDS011;12678;51.336;12.406;2023-09-08T14:11:14;7.90;;;2.83;;
24517;SDS011;12678;51.336;12.406;2023-09-08T14:13:40;4.80;;;2.97;;
24517;SDS011;12678;51.336;12.406;2023-09-08T14:16:05;4.68;;;3.42;;
24517;SDS011;12678;51.336;12.406;2023-09-08T14:18:31;3.78;;;2.80;;
24517;SDS011;12678;51.336;12.406;2023-09-08T14:20:57;6.03;;;2.95;;
24517;SDS011;12678;51.336;12.406;2023-09-08T14:23:22;7.35;;;2.78;;
24517;SDS011;12678;51.336;12.406;2023-09-08T14:25:48;5.32;;;2.85;;
24517;SDS011;12678;51.336;12.406;2023-09-08T14:28:13;6.90;;;3.42;;
24517;SDS011;12678;51.336;12.406;2023-09-08T14:30:39;6.13;;;3.05;;
24517;SDS011;12678;51.336;12.406;2023-09-08T14:33:05;11.05;;;3.50;;
24517;SDS011;12678;51.336;12.406;2023-09-08T14:35:31;3.97;;;2.35;;
24517;SDS011;12678;51.336;12.406;2023-09-08T14:37:57;6.38;;;2.60;;
24517;SDS011;12678;51.336;12.406;2023-09-08T14:40:23;4.43;;;3.00;;
24517;SDS011;12678;51.336;12.406;2023-09-08T14:42:48;6.80;;;3.63;;
24517;SDS011;12678;51.336;12.406;2023-09-08T14:45:14;7.00;;;2.72;;